Port Blandford, Canada
Current Conditions -  °F | °C
As of 4:24 PM on Friday 21 Nov 2014 (Local Time) from CYQX Reporting Station
Snow Showers Snow Showers  
Wind Chill: 24°   Ceiling: 3200
Heat Index: 36°   Visibility: 4mi
Dew Point: 28°   Wind: 23mph
Humidity: 75%   Direction: 260°W
Pressure: 29.38"   Gusts: 37mph
Location:  48.35°N, 54.17°W
Report Text: CYQX 211924Z 26020G32KT 4SM -SHSN FEW016 BKN032 BKN048 BKN260 02/M02 A2938 RMK SC2SC3SC1CI1 PRESRR SLP955
Loading
Personal Weather Stations






























Interactive Weather Map New forecast layout! Learn more

10-Day Weather Forecast

Advertisements
Track Severe Weather on mobile